sensor_id;sensor_type;location;lat;lon;timestamp;temperature;humidity
66184;DHT22;52989;48.796;9.806;2023-04-01T00:01:45;9.40;99.70
66184;DHT22;52989;48.796;9.806;2023-04-01T00:04:11;9.30;99.90
66184;DHT22;52989;48.796;9.806;2023-04-01T00:06:36;9.40;99.90
66184;DHT22;52989;48.796;9.806;2023-04-01T00:09:02;9.40;99.90
66184;DHT22;52989;48.796;9.806;2023-04-01T00:11:27;9.30;99.70
66184;DHT22;52989;48.796;9.806;2023-04-01T00:13:53;9.30;99.70
66184;DHT22;52989;48.796;9.806;2023-04-01T00:16:18;9.40;99.90
66184;DHT22;52989;48.796;9.806;2023-04-01T00:18:44;9.70;99.90
66184;DHT22;52989;48.796;9.806;2023-04-01T00:21:12;9.60;99.50
66184;DHT22;52989;48.796;9.806;2023-04-01T00:23:38;9.70;99.90
66184;DHT22;52989;48.796;9.806;2023-04-01T00:26:03;9.40;99.70
66184;DHT22;52989;48.796;9.806;2023-04-01T00:28:29;9.40;99.90
66184;DHT22;52989;48.796;9.806;2023-04-01T00:30:54;9.50;99.90
66184;DHT22;52989;48.796;9.806;2023-04-01T00:33:20;9.30;99.90
66184;DHT22;52989;48.796;9.806;2023-04-01T00:35:46;9.40;99.90
66184;DHT22;52989;48.796;9.806;2023-04-01T00:38:12;9.70;99.90
66184;DHT22;52989;48.796;9.806;2023-04-01T00:40:41;9.40;99.50
66184;DHT22;52989;48.796;9.806;2023-04-01T00:43:15;9.30;99.80
66184;DHT22;52989;48.796;9.806;2023-04-01T00:45:43;9.30;99.90
66184;DHT22;52989;48.796;9.806;2023-04-01T00:48:10;9.50;99.90
66184;DHT22;52989;48.796;9.806;2023-04-01T00:50:36;9.40;99.90
66184;DHT22;52989;48.796;9.806;2023-04-01T00:53:02;9.40;99.40
66184;DHT22;52989;48.796;9.806;2023-04-01T00:55:28;9.30;99.70
66184;DHT22;52989;48.796;9.806;2023-04-01T00:57:55;9.40;99.90
66184;DHT22;52989;48.796;9.806;2023-04-01T01:00:22;9.20;99.90
66184;DHT22;52989;48.796;9.806;2023-04-01T01:02:47;9.10;99.70
66184;DHT22;52989;48.796;9.806;2023-04-01T01:05:15;9.20;99.80
66184;DHT22;52989;48.796;9.806;2023-04-01T01:10:32;9.30;99.60
66184;DHT22;52989;48.796;9.806;2023-04-01T01:15:31;9.30;99.30
66184;DHT22;52989;48.796;9.806;2023-04-01T01:22:57;9.30;99.30
66184;DHT22;52989;48.796;9.806;2023-04-01T01:28:01;9.50;99.90
66184;DHT22;52989;48.796;9.806;2023-04-01T01:30:34;9.30;99.50
66184;DHT22;52989;48.796;9.806;2023-04-01T01:33:06;9.00;99.90
66184;DHT22;52989;48.796;9.806;2023-04-01T01:36:08;8.90;99.90
66184;DHT22;52989;48.796;9.806;2023-04-01T01:38:27;8.80;99.90
66184;DHT22;52989;48.796;9.806;2023-04-01T01:40:54;9.10;99.90
66184;DHT22;52989;48.796;9.806;2023-04-01T01:43:25;8.80;99.90
66184;DHT22;52989;48.796;9.806;2023-04-01T01:45:54;8.60;99.90
66184;DHT22;52989;48.796;9.806;2023-04-01T01:48:20;8.60;99.90
66184;DHT22;52989;48.796;9.806;2023-04-01T01:50:47;8.70;99.90
66184;DHT22;52989;48.796;9.806;2023-04-01T01:53:13;9.20;99.90
66184;DHT22;52989;48.796;9.806;2023-04-01T01:55:41;9.20;99.90
66184;DHT22;52989;48.796;9.806;2023-04-01T01:58:27;8.90;99.90
66184;DHT22;52989;48.796;9.806;2023-04-01T02:01:01;8.90;99.90
66184;DHT22;52989;48.796;9.806;2023-04-01T02:03:29;8.80;99.90
66184;DHT22;52989;48.796;9.806;2023-04-01T02:05:56;8.70;99.90
66184;DHT22;52989;48.796;9.806;2023-04-01T02:08:23;8.90;99.90
66184;DHT22;52989;48.796;9.806;2023-04-01T02:11:06;8.60;99.90
66184;DHT22;52989;48.796;9.806;2023-04-01T02:19:30;8.90;99.90
66184;DHT22;52989;48.796;9.806;2023-04-01T02:21:57;9.10;99.90
66184;DHT22;52989;48.796;9.806;2023-04-01T02:24:24;8.80;99.90
66184;DHT22;52989;48.796;9.806;2023-04-01T02:26:51;8.70;99.90
66184;DHT22;52989;48.796;9.806;2023-04-01T02:29:21;8.50;99.90
66184;DHT22;52989;48.796;9.806;2023-04-01T02:31:47;8.80;99.90
66184;DHT22;52989;48.796;9.806;2023-04-01T02:34:14;8.70;99.90
66184;DHT22;52989;48.796;9.806;2023-04-01T02:36:39;8.50;99.90
66184;DHT22;52989;48.796;9.806;2023-04-01T02:39:05;8.50;99.90
66184;DHT22;52989;48.796;9.806;2023-04-01T02:41:31;8.50;99.90
66184;DHT22;52989;48.796;9.806;2023-04-01T02:43:57;8.40;99.90
66184;DHT22;52989;48.796;9.806;2023-04-01T02:46:24;8.40;99.90
66184;DHT22;52989;48.796;9.806;2023-04-01T02:48:49;8.60;99.90
66184;DHT22;52989;48.796;9.806;2023-04-01T02:51:15;8.60;99.90
66184;DHT22;52989;48.796;9.806;2023-04-01T02:53:40;8.60;99.90
66184;DHT22;52989;48.796;9.806;2023-04-01T02:56:06;8.50;99.90
66184;DHT22;52989;48.796;9.806;2023-04-01T02:58:31;8.50;99.90
66184;DHT22;52989;48.796;9.806;2023-04-01T03:00:56;8.40;99.90
66184;DHT22;52989;48.796;9.806;2023-04-01T03:03:22;8.50;99.90
66184;DHT22;52989;48.796;9.806;2023-04-01T03:05:47;8.50;99.90
66184;DHT22;52989;48.796;9.806;2023-04-01T03:08:13;8.40;99.90
66184;DHT22;52989;48.796;9.806;2023-04-01T03:10:38;8.40;99.90
66184;DHT22;52989;48.796;9.806;2023-04-01T03:13:07;8.70;99.90
66184;DHT22;52989;48.796;9.806;2023-04-01T03:15:32;8.50;99.90
66184;DHT22;52989;48.796;9.806;2023-04-01T03:17:58;8.60;99.90
66184;DHT22;52989;48.796;9.806;2023-04-01T03:20:23;8.40;99.90
66184;DHT22;52989;48.796;9.806;2023-04-01T03:22:49;8.50;99.90
66184;DHT22;52989;48.796;9.806;2023-04-01T03:25:14;8.40;99.90
66184;DHT22;52989;48.796;9.806;2023-04-01T03:27:40;8.50;99.90
66184;DHT22;52989;48.796;9.806;2023-04-01T03:30:05;8.80;99.90
66184;DHT22;52989;48.796;9.806;2023-04-01T03:32:31;8.50;99.90
66184;DHT22;52989;48.796;9.806;2023-04-01T03:34:57;8.40;99.90
66184;DHT22;52989;48.796;9.806;2023-04-01T03:37:23;8.40;99.90
66184;DHT22;52989;48.796;9.806;2023-04-01T03:39:49;8.40;99.90
66184;DHT22;52989;48.796;9.806;2023-04-01T03:42:14;8.60;99.90
66184;DHT22;52989;48.796;9.806;2023-04-01T03:44:40;8.40;99.90
66184;DHT22;52989;48.796;9.806;2023-04-01T03:47:06;8.70;99.90
66184;DHT22;52989;48.796;9.806;2023-04-01T03:49:31;8.40;99.90
66184;DHT22;52989;48.796;9.806;2023-04-01T03:51:58;8.50;99.90
66184;DHT22;52989;48.796;9.806;2023-04-01T03:54:23;8.40;99.90
66184;DHT22;52989;48.796;9.806;2023-04-01T03:56:49;8.30;99.90
66184;DHT22;52989;48.796;9.806;2023-04-01T03:59:15;8.50;99.90
66184;DHT22;52989;48.796;9.806;2023-04-01T04:01:40;8.40;99.90
66184;DHT22;52989;48.796;9.806;2023-04-01T04:04:06;8.50;99.90
66184;DHT22;52989;48.796;9.806;2023-04-01T04:06:32;8.50;99.90
66184;DHT22;52989;48.796;9.806;2023-04-01T04:08:58;8.30;99.90
66184;DHT22;52989;48.796;9.806;2023-04-01T04:11:23;8.20;99.90
66184;DHT22;52989;48.796;9.806;2023-04-01T04:13:48;8.30;99.90
66184;DHT22;52989;48.796;9.806;2023-04-01T04:16:15;8.40;99.90
66184;DHT22;52989;48.796;9.806;2023-04-01T04:18:40;8.40;99.90
66184;DHT22;52989;48.796;9.806;2023-04-01T04:21:06;8.50;99.90
66184;DHT22;52989;48.796;9.806;2023-04-01T04:23:31;8.50;99.90
66184;DHT22;52989;48.796;9.806;2023-04-01T04:26:00;8.60;99.90
66184;DHT22;52989;48.796;9.806;2023-04-01T04:28:26;8.40;99.90
66184;DHT22;52989;48.796;9.806;2023-04-01T04:30:52;8.30;99.90
66184;DHT22;52989;48.796;9.806;2023-04-01T04:33:17;8.20;99.90
66184;DHT22;52989;48.796;9.806;2023-04-01T04:35:43;8.30;99.90
66184;DHT22;52989;48.796;9.806;2023-04-01T04:38:09;8.50;99.90
66184;DHT22;52989;48.796;9.806;2023-04-01T04:40:35;8.30;99.90
66184;DHT22;52989;48.796;9.806;2023-04-01T04:43:01;8.10;99.90
66184;DHT22;52989;48.796;9.806;2023-04-01T04:45:26;8.10;99.90
66184;DHT22;52989;48.796;9.806;2023-04-01T04:47:52;8.80;99.90
66184;DHT22;52989;48.796;9.806;2023-04-01T04:50:17;8.20;99.90
66184;DHT22;52989;48.796;9.806;2023-04-01T04:52:43;8.10;99.90
66184;DHT22;52989;48.796;9.806;2023-04-01T04:55:08;8.00;99.90
66184;DHT22;52989;48.796;9.806;2023-04-01T04:57:34;8.00;99.90
66184;DHT22;52989;48.796;9.806;2023-04-01T04:59:59;8.10;99.90
66184;DHT22;52989;48.796;9.806;2023-04-01T05:02:25;8.10;99.90
66184;DHT22;52989;48.796;9.806;2023-04-01T05:04:50;8.70;99.90
66184;DHT22;52989;48.796;9.806;2023-04-01T05:07:15;8.30;99.90
66184;DHT22;52989;48.796;9.806;2023-04-01T05:09:41;8.20;99.90
66184;DHT22;52989;48.796;9.806;2023-04-01T05:12:06;8.40;99.90
66184;DHT22;52989;48.796;9.806;2023-04-01T05:14:32;8.20;99.90
66184;DHT22;52989;48.796;9.806;2023-04-01T05:16:57;8.20;99.90
66184;DHT22;52989;48.796;9.806;2023-04-01T05:19:23;8.50;99.90
66184;DHT22;52989;48.796;9.806;2023-04-01T05:21:48;8.40;99.70
66184;DHT22;52989;48.796;9.806;2023-04-01T05:24:14;8.70;99.90
66184;DHT22;52989;48.796;9.806;2023-04-01T05:26:39;8.50;99.60
66184;DHT22;52989;48.796;9.806;2023-04-01T05:29:05;8.50;99.50
66184;DHT22;52989;48.796;9.806;2023-04-01T05:31:30;8.50;99.50
66184;DHT22;52989;48.796;9.806;2023-04-01T05:33:56;8.50;99.60
66184;DHT22;52989;48.796;9.806;2023-04-01T05:36:21;8.50;99.90
66184;DHT22;52989;48.796;9.806;2023-04-01T05:38:47;8.50;99.30
66184;DHT22;52989;48.796;9.806;2023-04-01T05:41:13;8.50;99.50
66184;DHT22;52989;48.796;9.806;2023-04-01T05:43:39;8.40;99.60
66184;DHT22;52989;48.796;9.806;2023-04-01T05:46:05;8.60;99.90
66184;DHT22;52989;48.796;9.806;2023-04-01T05:48:30;8.50;99.80
66184;DHT22;52989;48.796;9.806;2023-04-01T05:50:56;8.40;99.80
66184;DHT22;52989;48.796;9.806;2023-04-01T05:53:21;8.70;99.90
66184;DHT22;52989;48.796;9.806;2023-04-01T05:55:47;8.60;99.70
66184;DHT22;52989;48.796;9.806;2023-04-01T05:58:13;8.70;99.90
66184;DHT22;52989;48.796;9.806;2023-04-01T06:00:38;8.60;99.40
66184;DHT22;52989;48.796;9.806;2023-04-01T06:03:03;8.80;99.10
66184;DHT22;52989;48.796;9.806;2023-04-01T06:05:30;8.80;98.40
66184;DHT22;52989;48.796;9.806;2023-04-01T06:08:00;9.00;98.90
66184;DHT22;52989;48.796;9.806;2023-04-01T06:10:51;8.80;98.70
66184;DHT22;52989;48.796;9.806;2023-04-01T06:15:59;8.90;99.00
66184;DHT22;52989;48.796;9.806;2023-04-01T06:18:38;9.00;98.10
66184;DHT22;52989;48.796;9.806;2023-04-01T06:23:44;8.90;97.50
66184;DHT22;52989;48.796;9.806;2023-04-01T06:26:20;8.90;97.60
66184;DHT22;52989;48.796;9.806;2023-04-01T06:36:41;9.70;98.00
66184;DHT22;52989;48.796;9.806;2023-04-01T06:39:13;9.10;97.60
66184;DHT22;52989;48.796;9.806;2023-04-01T06:46:52;9.30;97.30
66184;DHT22;52989;48.796;9.806;2023-04-01T06:49:24;9.10;97.30
66184;DHT22;52989;48.796;9.806;2023-04-01T06:52:02;9.30;97.00
66184;DHT22;52989;48.796;9.806;2023-04-01T06:54:36;9.60;96.80
66184;DHT22;52989;48.796;9.806;2023-04-01T06:57:05;9.20;96.80
66184;DHT22;52989;48.796;9.806;2023-04-01T06:59:35;9.40;97.10
66184;DHT22;52989;48.796;9.806;2023-04-01T07:02:48;9.60;96.60
66184;DHT22;52989;48.796;9.806;2023-04-01T07:04:48;9.30;96.10
66184;DHT22;52989;48.796;9.806;2023-04-01T07:07:21;9.50;96.30
66184;DHT22;52989;48.796;9.806;2023-04-01T07:09:50;9.40;96.70
66184;DHT22;52989;48.796;9.806;2023-04-01T07:12:20;10.10;96.10
66184;DHT22;52989;48.796;9.806;2023-04-01T07:14:47;9.60;95.90
66184;DHT22;52989;48.796;9.806;2023-04-01T07:19:41;9.70;95.50
66184;DHT22;52989;48.796;9.806;2023-04-01T07:22:16;9.80;95.70
66184;DHT22;52989;48.796;9.806;2023-04-01T07:24:44;9.70;95.60
66184;DHT22;52989;48.796;9.806;2023-04-01T07:27:11;9.60;95.30
66184;DHT22;52989;48.796;9.806;2023-04-01T07:29:37;9.70;95.50
66184;DHT22;52989;48.796;9.806;2023-04-01T07:37:02;10.00;95.30
66184;DHT22;52989;48.796;9.806;2023-04-01T07:42:07;10.00;95.50
66184;DHT22;52989;48.796;9.806;2023-04-01T07:44:44;9.90;95.40
66184;DHT22;52989;48.796;9.806;2023-04-01T07:49:52;10.00;94.90
66184;DHT22;52989;48.796;9.806;2023-04-01T07:54:57;10.10;94.70
66184;DHT22;52989;48.796;9.806;2023-04-01T08:07:53;10.40;94.70
66184;DHT22;52989;48.796;9.806;2023-04-01T08:10:23;10.50;94.40
66184;DHT22;52989;48.796;9.806;2023-04-01T08:15:49;10.90;95.20
66184;DHT22;52989;48.796;9.806;2023-04-01T08:23:13;10.50;94.80
66184;DHT22;52989;48.796;9.806;2023-04-01T08:25:40;10.40;94.20
66184;DHT22;52989;48.796;9.806;2023-04-01T08:33:08;10.40;95.40
66184;DHT22;52989;48.796;9.806;2023-04-01T08:38:04;10.20;95.40
66184;DHT22;52989;48.796;9.806;2023-04-01T08:40:41;10.40;96.40
66184;DHT22;52989;48.796;9.806;2023-04-01T08:43:24;10.20;95.60
66184;DHT22;52989;48.796;9.806;2023-04-01T08:45:59;10.30;96.70
66184;DHT22;52989;48.796;9.806;2023-04-01T08:56:29;10.10;97.50
66184;DHT22;52989;48.796;9.806;2023-04-01T09:01:46;10.10;97.20
66184;DHT22;52989;48.796;9.806;2023-04-01T09:07:00;9.90;96.90
66184;DHT22;52989;48.796;9.806;2023-04-01T09:09:33;9.90;96.60
66184;DHT22;52989;48.796;9.806;2023-04-01T09:22:37;10.10;97.90
66184;DHT22;52989;48.796;9.806;2023-04-01T09:25:15;10.00;96.70
66184;DHT22;52989;48.796;9.806;2023-04-01T09:27:56;10.10;97.10
66184;DHT22;52989;48.796;9.806;2023-04-01T09:33:15;10.10;97.50
66184;DHT22;52989;48.796;9.806;2023-04-01T09:38:28;10.00;99.90
66184;DHT22;52989;48.796;9.806;2023-04-01T09:40:56;9.90;99.90
66184;DHT22;52989;48.796;9.806;2023-04-01T09:46:13;9.80;99.90
66184;DHT22;52989;48.796;9.806;2023-04-01T09:53:44;9.30;99.90
66184;DHT22;52989;48.796;9.806;2023-04-01T09:59:03;9.40;99.90
66184;DHT22;52989;48.796;9.806;2023-04-01T10:09:12;9.50;99.90
66184;DHT22;52989;48.796;9.806;2023-04-01T10:12:02;9.60;99.90
66184;DHT22;52989;48.796;9.806;2023-04-01T10:14:37;9.50;99.90
66184;DHT22;52989;48.796;9.806;2023-04-01T10:19:49;9.90;99.90
66184;DHT22;52989;48.796;9.806;2023-04-01T10:33:07;9.80;99.90
66184;DHT22;52989;48.796;9.806;2023-04-01T10:38:39;9.20;99.90
66184;DHT22;52989;48.796;9.806;2023-04-01T10:41:14;9.20;99.90
66184;DHT22;52989;48.796;9.806;2023-04-01T10:43:53;9.30;99.90
66184;DHT22;52989;48.796;9.806;2023-04-01T10:49:10;9.40;99.90
66184;DHT22;52989;48.796;9.806;2023-04-01T10:59:20;9.20;99.90
66184;DHT22;52989;48.796;9.806;2023-04-01T11:07:22;9.70;99.90
66184;DHT22;52989;48.796;9.806;2023-04-01T11:22:49;9.30;99.90
66184;DHT22;52989;48.796;9.806;2023-04-01T11:25:29;9.10;99.90
66184;DHT22;52989;48.796;9.806;2023-04-01T11:28:07;9.10;99.90
66184;DHT22;52989;48.796;9.806;2023-04-01T11:33:23;9.50;99.90
66184;DHT22;52989;48.796;9.806;2023-04-01T11:51:44;9.30;99.90
66184;DHT22;52989;48.796;9.806;2023-04-01T11:54:28;9.10;99.90
66184;DHT22;52989;48.796;9.806;2023-04-01T11:59:56;9.20;99.90
66184;DHT22;52989;48.796;9.806;2023-04-01T12:02:39;9.40;99.90
66184;DHT22;52989;48.796;9.806;2023-04-01T12:05:17;9.70;99.90
66184;DHT22;52989;48.796;9.806;2023-04-01T12:10:37;9.40;99.90
66184;DHT22;52989;48.796;9.806;2023-04-01T12:13:07;9.20;99.90
66184;DHT22;52989;48.796;9.806;2023-04-01T12:18:31;9.60;99.90
66184;DHT22;52989;48.796;9.806;2023-04-01T12:21:09;9.80;99.90
66184;DHT22;52989;48.796;9.806;2023-04-01T12:26:24;9.70;99.90
66184;DHT22;52989;48.796;9.806;2023-04-01T12:29:12;9.80;99.90
66184;DHT22;52989;48.796;9.806;2023-04-01T12:34:30;9.90;99.90
66184;DHT22;52989;48.796;9.806;2023-04-01T12:37:03;10.10;99.90
66184;DHT22;52989;48.796;9.806;2023-04-01T12:39:48;10.10;99.90
66184;DHT22;52989;48.796;9.806;2023-04-01T12:42:30;10.00;99.90
66184;DHT22;52989;48.796;9.806;2023-04-01T12:52:42;10.00;99.90
66184;DHT22;52989;48.796;9.806;2023-04-01T13:07:34;10.20;99.90
66184;DHT22;52989;48.796;9.806;2023-04-01T13:10:02;9.90;99.90
66184;DHT22;52989;48.796;9.806;2023-04-01T13:15:10;9.80;99.90
66184;DHT22;52989;48.796;9.806;2023-04-01T13:17:46;9.60;99.90
66184;DHT22;52989;48.796;9.806;2023-04-01T13:20:34;9.80;99.90
66184;DHT22;52989;48.796;9.806;2023-04-01T13:36:16;9.70;99.90
66184;DHT22;52989;48.796;9.806;2023-04-01T13:44:53;9.80;99.90
66184;DHT22;52989;48.796;9.806;2023-04-01T13:49:47;9.60;99.90
66184;DHT22;52989;48.796;9.806;2023-04-01T13:54:53;9.70;99.90
66184;DHT22;52989;48.796;9.806;2023-04-01T14:00:16;9.80;99.90
66184;DHT22;52989;48.796;9.806;2023-04-01T14:02:50;9.70;99.90
66184;DHT22;52989;48.796;9.806;2023-04-01T14:08:07;9.60;99.90
66184;DHT22;52989;48.796;9.806;2023-04-01T14:10:40;9.40;99.90
66184;DHT22;52989;48.796;9.806;2023-04-01T14:18:24;9.60;99.90
66184;DHT22;52989;48.796;9.806;2023-04-01T14:20:59;9.40;99.90
66184;DHT22;52989;48.796;9.806;2023-04-01T14:23:36;9.70;99.90
66184;DHT22;52989;48.796;9.806;2023-04-01T14:28:49;9.40;99.90
66184;DHT22;52989;48.796;9.806;2023-04-01T14:36:29;10.20;99.90
66184;DHT22;52989;48.796;9.806;2023-04-01T14:41:47;9.70;99.90
66184;DHT22;52989;48.796;9.806;2023-04-01T14:49:42;10.10;99.90
66184;DHT22;52989;48.796;9.806;2023-04-01T14:52:16;10.00;99.90
66184;DHT22;52989;48.796;9.806;2023-04-01T14:54:46;9.80;99.90
66184;DHT22;52989;48.796;9.806;2023-04-01T14:57:23;9.30;99.90
66184;DHT22;52989;48.796;9.806;2023-04-01T15:00:13;9.30;99.90
66184;DHT22;52989;48.796;9.806;2023-04-01T15:05:10;9.70;99.90
66184;DHT22;52989;48.796;9.806;2023-04-01T15:07:52;9.80;99.90
66184;DHT22;52989;48.796;9.806;2023-04-01T15:10:31;9.50;99.90
66184;DHT22;52989;48.796;9.806;2023-04-01T15:13:24;9.60;99.90
66184;DHT22;52989;48.796;9.806;2023-04-01T15:18:21;9.30;99.90
66184;DHT22;52989;48.796;9.806;2023-04-01T15:25:59;9.80;99.90
66184;DHT22;52989;48.796;9.806;2023-04-01T15:38:51;9.30;99.90
66184;DHT22;52989;48.796;9.806;2023-04-01T15:41:22;9.00;99.90
66184;DHT22;52989;48.796;9.806;2023-04-01T15:43:50;9.30;99.90
66184;DHT22;52989;48.796;9.806;2023-04-01T15:46:24;9.10;99.90
66184;DHT22;52989;48.796;9.806;2023-04-01T15:51:24;9.20;99.90
66184;DHT22;52989;48.796;9.806;2023-04-01T15:56:43;9.20;99.90
66184;DHT22;52989;48.796;9.806;2023-04-01T15:59:15;9.00;99.90
66184;DHT22;52989;48.796;9.806;2023-04-01T16:01:46;9.10;99.90
66184;DHT22;52989;48.796;9.806;2023-04-01T16:09:39;9.30;99.90
66184;DHT22;52989;48.796;9.806;2023-04-01T16:21:04;9.50;99.90
66184;DHT22;52989;48.796;9.806;2023-04-01T16:25:44;9.00;99.90
66184;DHT22;52989;48.796;9.806;2023-04-01T16:28:18;9.00;99.90
66184;DHT22;52989;48.796;9.806;2023-04-01T16:30:56;9.00;99.90
66184;DHT22;52989;48.796;9.806;2023-04-01T16:33:24;9.20;99.90
66184;DHT22;52989;48.796;9.806;2023-04-01T16:39:06;9.10;99.90
66184;DHT22;52989;48.796;9.806;2023-04-01T16:41:38;9.00;99.90
66184;DHT22;52989;48.796;9.806;2023-04-01T16:46:42;9.20;99.90
66184;DHT22;52989;48.796;9.806;2023-04-01T16:57:01;9.00;99.90
66184;DHT22;52989;48.796;9.806;2023-04-01T16:59:38;9.10;99.90
66184;DHT22;52989;48.796;9.806;2023-04-01T17:04:44;9.20;99.90
66184;DHT22;52989;48.796;9.806;2023-04-01T17:12:41;9.30;99.90
66184;DHT22;52989;48.796;9.806;2023-04-01T17:15:13;9.30;99.90
66184;DHT22;52989;48.796;9.806;2023-04-01T17:17:45;9.20;99.90
66184;DHT22;52989;48.796;9.806;2023-04-01T17:23:13;9.20;99.90
66184;DHT22;52989;48.796;9.806;2023-04-01T17:36:29;9.10;99.90
66184;DHT22;52989;48.796;9.806;2023-04-01T17:51:41;9.00;99.90
66184;DHT22;52989;48.796;9.806;2023-04-01T18:01:42;8.80;99.90
66184;DHT22;52989;48.796;9.806;2023-04-01T18:04:15;9.10;99.90
66184;DHT22;52989;48.796;9.806;2023-04-01T18:07:08;9.20;99.90
66184;DHT22;52989;48.796;9.806;2023-04-01T18:09:33;9.10;99.90
66184;DHT22;52989;48.796;9.806;2023-04-01T18:30:31;9.00;99.90
66184;DHT22;52989;48.796;9.806;2023-04-01T18:38:29;9.10;99.90
66184;DHT22;52989;48.796;9.806;2023-04-01T18:43:30;9.10;99.90
66184;DHT22;52989;48.796;9.806;2023-04-01T18:48:59;9.30;99.90
66184;DHT22;52989;48.796;9.806;2023-04-01T18:51:44;9.30;99.90
66184;DHT22;52989;48.796;9.806;2023-04-01T18:54:13;9.20;99.90
66184;DHT22;52989;48.796;9.806;2023-04-01T18:56:44;9.20;99.90
66184;DHT22;52989;48.796;9.806;2023-04-01T18:59:12;9.10;99.90
66184;DHT22;52989;48.796;9.806;2023-04-01T19:04:14;9.00;99.90
66184;DHT22;52989;48.796;9.806;2023-04-01T19:06:45;8.80;99.90
66184;DHT22;52989;48.796;9.806;2023-04-01T19:09:47;8.80;99.90
66184;DHT22;52989;48.796;9.806;2023-04-01T19:12:12;8.50;99.90
66184;DHT22;52989;48.796;9.806;2023-04-01T19:20:02;8.30;99.90
66184;DHT22;52989;48.796;9.806;2023-04-01T19:27:35;8.60;99.90
66184;DHT22;52989;48.796;9.806;2023-04-01T19:35:44;8.40;99.90
66184;DHT22;52989;48.796;9.806;2023-04-01T19:45:57;8.90;99.90
66184;DHT22;52989;48.796;9.806;2023-04-01T19:53:37;8.40;99.90
66184;DHT22;52989;48.796;9.806;2023-04-01T19:56:12;8.20;99.90
66184;DHT22;52989;48.796;9.806;2023-04-01T20:01:44;8.50;99.90
66184;DHT22;52989;48.796;9.806;2023-04-01T20:04:13;8.10;99.90
66184;DHT22;52989;48.796;9.806;2023-04-01T20:11:52;8.00;99.90
66184;DHT22;52989;48.796;9.806;2023-04-01T20:14:28;8.00;99.90
66184;DHT22;52989;48.796;9.806;2023-04-01T20:17:02;8.20;99.90
66184;DHT22;52989;48.796;9.806;2023-04-01T20:19:34;8.20;99.90
66184;DHT22;52989;48.796;9.806;2023-04-01T20:22:00;8.10;99.90
66184;DHT22;52989;48.796;9.806;2023-04-01T20:24:41;8.10;99.90
66184;DHT22;52989;48.796;9.806;2023-04-01T20:29:37;8.10;99.90
66184;DHT22;52989;48.796;9.806;2023-04-01T20:34:59;8.50;99.90
66184;DHT22;52989;48.796;9.806;2023-04-01T20:37:39;8.30;99.90
66184;DHT22;52989;48.796;9.806;2023-04-01T20:40:22;8.70;99.90
66184;DHT22;52989;48.796;9.806;2023-04-01T20:47:59;8.70;99.90
66184;DHT22;52989;48.796;9.806;2023-04-01T20:50:48;8.90;99.90
66184;DHT22;52989;48.796;9.806;2023-04-01T20:53:28;8.70;99.90
66184;DHT22;52989;48.796;9.806;2023-04-01T20:58:29;8.60;99.90
66184;DHT22;52989;48.796;9.806;2023-04-01T21:11:08;8.40;99.90
66184;DHT22;52989;48.796;9.806;2023-04-01T21:24:23;8.70;99.90
66184;DHT22;52989;48.796;9.806;2023-04-01T21:26:55;8.50;99.90
66184;DHT22;52989;48.796;9.806;2023-04-01T21:57:10;8.50;99.90
66184;DHT22;52989;48.796;9.806;2023-04-01T22:08:02;7.80;99.90
66184;DHT22;52989;48.796;9.806;2023-04-01T22:10:37;7.60;99.90
66184;DHT22;52989;48.796;9.806;2023-04-01T22:13:20;7.90;99.90
66184;DHT22;52989;48.796;9.806;2023-04-01T22:18:20;7.50;99.90
66184;DHT22;52989;48.796;9.806;2023-04-01T22:20:50;7.40;99.90
66184;DHT22;52989;48.796;9.806;2023-04-01T22:23:31;7.60;99.90
66184;DHT22;52989;48.796;9.806;2023-04-01T22:28:27;7.90;99.90
66184;DHT22;52989;48.796;9.806;2023-04-01T22:30:55;8.60;99.90
66184;DHT22;52989;48.796;9.806;2023-04-01T22:36:01;8.70;99.90
66184;DHT22;52989;48.796;9.806;2023-04-01T22:38:33;8.70;99.90
66184;DHT22;52989;48.796;9.806;2023-04-01T22:43:38;8.30;99.90
66184;DHT22;52989;48.796;9.806;2023-04-01T22:46:52;8.20;99.90
66184;DHT22;52989;48.796;9.806;2023-04-01T22:49:36;8.30;99.90
66184;DHT22;52989;48.796;9.806;2023-04-01T22:51:43;8.30;99.90
66184;DHT22;52989;48.796;9.806;2023-04-01T22:56:37;7.90;99.90
66184;DHT22;52989;48.796;9.806;2023-04-01T23:01:55;7.70;99.90
66184;DHT22;52989;48.796;9.806;2023-04-01T23:04:24;8.70;99.90
66184;DHT22;52989;48.796;9.806;2023-04-01T23:06:55;8.30;99.90
66184;DHT22;52989;48.796;9.806;2023-04-01T23:09:26;8.10;99.90
66184;DHT22;52989;48.796;9.806;2023-04-01T23:24:43;8.00;99.90
66184;DHT22;52989;48.796;9.806;2023-04-01T23:27:17;8.50;99.90
66184;DHT22;52989;48.796;9.806;2023-04-01T23:29:45;8.00;99.90
66184;DHT22;52989;48.796;9.806;2023-04-01T23:32:14;8.20;99.90
66184;DHT22;52989;48.796;9.806;2023-04-01T23:34:44;8.70;99.90
66184;DHT22;52989;48.796;9.806;2023-04-01T23:37:11;8.20;99.90
66184;DHT22;52989;48.796;9.806;2023-04-01T23:39:40;8.30;99.90
66184;DHT22;52989;48.796;9.806;2023-04-01T23:42:30;8.30;99.90
66184;DHT22;52989;48.796;9.806;2023-04-01T23:44:55;8.40;99.90
66184;DHT22;52989;48.796;9.806;2023-04-01T23:47:23;8.40;99.90
66184;DHT22;52989;48.796;9.806;2023-04-01T23:50:03;8.20;99.90
66184;DHT22;52989;48.796;9.806;2023-04-01T23:52:36;8.80;99.90
66184;DHT22;52989;48.796;9.806;2023-04-01T23:57:30;8.10;99.90
